Terminal Aerodrome Forecast
Issued by NWS

Home | Current Version | Previous Version | Text Only | Print | Product List | Glossary On
Versions: 1 2 3 4 5 6 7 8 9 10 11 12 13 14 15 16 17 18 19 20 21 22 23 24 25
903
FTUS43 KABR 212328 AAB
TAFATY
TAF AMD
KATY 212328Z 2123/2218 18010KT P6SM SKC
     FM220300 15007KT P6SM FEW200
     FM220400 15007KT P6SM VCTS BKN100CB OVC250 WS020/19035KT
     FM220800 15007KT P6SM FEW250 WS020/19035KT
     FM221100 15007KT P6SM BKN009 WS020/19035KT
     FM221400 17012G23KT P6SM BKN010=

USA.gov is the U.S. government's official web portal to all federal, state and local government web resources and services.